sensor_id;sensor_type;location;lat;lon;timestamp;temperature;humidity
7174;DHT22;3628;48.654;8.932;2023-05-10T00:01:54;14.10;99.90
7174;DHT22;3628;48.654;8.932;2023-05-10T00:04:19;14.10;99.90
7174;DHT22;3628;48.654;8.932;2023-05-10T00:06:45;14.00;99.90
7174;DHT22;3628;48.654;8.932;2023-05-10T00:09:11;14.00;99.90
7174;DHT22;3628;48.654;8.932;2023-05-10T00:11:36;14.00;99.90
7174;DHT22;3628;48.654;8.932;2023-05-10T00:14:02;13.90;99.90
7174;DHT22;3628;48.654;8.932;2023-05-10T00:16:27;13.90;99.90
7174;DHT22;3628;48.654;8.932;2023-05-10T00:18:53;13.80;99.90
7174;DHT22;3628;48.654;8.932;2023-05-10T00:21:19;13.80;99.90
7174;DHT22;3628;48.654;8.932;2023-05-10T00:23:44;13.80;99.90
7174;DHT22;3628;48.654;8.932;2023-05-10T00:26:10;13.70;99.90
7174;DHT22;3628;48.654;8.932;2023-05-10T00:28:35;13.70;99.90
7174;DHT22;3628;48.654;8.932;2023-05-10T00:31:01;13.70;99.90
7174;DHT22;3628;48.654;8.932;2023-05-10T00:33:26;13.70;99.90
7174;DHT22;3628;48.654;8.932;2023-05-10T00:35:52;13.70;99.90
7174;DHT22;3628;48.654;8.932;2023-05-10T00:38:18;13.60;99.90
7174;DHT22;3628;48.654;8.932;2023-05-10T00:40:43;13.60;99.90
7174;DHT22;3628;48.654;8.932;2023-05-10T00:43:09;13.60;99.90
7174;DHT22;3628;48.654;8.932;2023-05-10T00:45:35;13.60;99.90
7174;DHT22;3628;48.654;8.932;2023-05-10T00:48:02;13.60;99.90
7174;DHT22;3628;48.654;8.932;2023-05-10T00:50:29;13.50;99.90
7174;DHT22;3628;48.654;8.932;2023-05-10T00:52:55;13.50;99.90
7174;DHT22;3628;48.654;8.932;2023-05-10T00:55:21;13.40;99.90
7174;DHT22;3628;48.654;8.932;2023-05-10T00:57:47;13.50;99.90
7174;DHT22;3628;48.654;8.932;2023-05-10T01:00:13;13.40;99.90
7174;DHT22;3628;48.654;8.932;2023-05-10T01:02:46;13.50;99.90
7174;DHT22;3628;48.654;8.932;2023-05-10T01:05:12;13.50;99.90
7174;DHT22;3628;48.654;8.932;2023-05-10T01:07:38;13.50;99.90
7174;DHT22;3628;48.654;8.932;2023-05-10T01:10:07;13.50;99.90
7174;DHT22;3628;48.654;8.932;2023-05-10T01:12:39;13.50;99.90
7174;DHT22;3628;48.654;8.932;2023-05-10T01:15:07;13.60;99.90
7174;DHT22;3628;48.654;8.932;2023-05-10T01:17:35;13.60;99.90
7174;DHT22;3628;48.654;8.932;2023-05-10T01:20:02;13.60;99.90
7174;DHT22;3628;48.654;8.932;2023-05-10T01:23:01;13.50;99.90
7174;DHT22;3628;48.654;8.932;2023-05-10T01:28:35;13.40;99.90
7174;DHT22;3628;48.654;8.932;2023-05-10T01:34:09;13.40;99.90
7174;DHT22;3628;48.654;8.932;2023-05-10T01:36:40;13.30;99.90
7174;DHT22;3628;48.654;8.932;2023-05-10T01:41:48;13.20;99.90
7174;DHT22;3628;48.654;8.932;2023-05-10T01:47:14;13.10;99.90
7174;DHT22;3628;48.654;8.932;2023-05-10T01:49:53;13.10;99.90
7174;DHT22;3628;48.654;8.932;2023-05-10T01:52:25;13.10;99.90
7174;DHT22;3628;48.654;8.932;2023-05-10T01:54:55;13.20;99.90
7174;DHT22;3628;48.654;8.932;2023-05-10T01:57:29;13.10;99.90
7174;DHT22;3628;48.654;8.932;2023-05-10T01:59:59;13.10;99.90
7174;DHT22;3628;48.654;8.932;2023-05-10T02:02:27;13.00;99.90
7174;DHT22;3628;48.654;8.932;2023-05-10T02:04:54;12.90;99.90
7174;DHT22;3628;48.654;8.932;2023-05-10T02:07:21;12.90;99.90
7174;DHT22;3628;48.654;8.932;2023-05-10T02:09:48;12.90;99.90
7174;DHT22;3628;48.654;8.932;2023-05-10T02:12:15;12.90;99.90
7174;DHT22;3628;48.654;8.932;2023-05-10T02:14:42;12.90;99.90
7174;DHT22;3628;48.654;8.932;2023-05-10T02:17:08;12.90;99.90
7174;DHT22;3628;48.654;8.932;2023-05-10T02:19:37;12.90;99.90
7174;DHT22;3628;48.654;8.932;2023-05-10T02:22:04;12.80;99.90
7174;DHT22;3628;48.654;8.932;2023-05-10T02:24:30;12.80;99.90
7174;DHT22;3628;48.654;8.932;2023-05-10T02:26:57;12.70;99.90
7174;DHT22;3628;48.654;8.932;2023-05-10T02:29:25;12.70;99.90
7174;DHT22;3628;48.654;8.932;2023-05-10T02:31:53;12.60;99.90
7174;DHT22;3628;48.654;8.932;2023-05-10T02:34:21;12.50;99.90
7174;DHT22;3628;48.654;8.932;2023-05-10T02:36:47;12.50;99.90
7174;DHT22;3628;48.654;8.932;2023-05-10T02:39:14;12.50;99.90
7174;DHT22;3628;48.654;8.932;2023-05-10T02:41:42;12.50;99.90
7174;DHT22;3628;48.654;8.932;2023-05-10T02:44:09;12.50;99.90
7174;DHT22;3628;48.654;8.932;2023-05-10T02:46:35;12.60;99.90
7174;DHT22;3628;48.654;8.932;2023-05-10T02:49:02;12.60;99.90
7174;DHT22;3628;48.654;8.932;2023-05-10T02:51:31;12.60;99.90
7174;DHT22;3628;48.654;8.932;2023-05-10T02:53:57;12.60;99.90
7174;DHT22;3628;48.654;8.932;2023-05-10T02:56:34;12.70;99.90
7174;DHT22;3628;48.654;8.932;2023-05-10T02:59:00;12.60;99.90
7174;DHT22;3628;48.654;8.932;2023-05-10T03:01:25;12.70;99.90
7174;DHT22;3628;48.654;8.932;2023-05-10T03:03:51;12.70;99.90
7174;DHT22;3628;48.654;8.932;2023-05-10T03:06:17;12.70;99.90
7174;DHT22;3628;48.654;8.932;2023-05-10T03:08:43;12.70;99.90
7174;DHT22;3628;48.654;8.932;2023-05-10T03:16:46;12.70;99.90
7174;DHT22;3628;48.654;8.932;2023-05-10T03:19:22;12.70;99.90
7174;DHT22;3628;48.654;8.932;2023-05-10T03:21:51;12.70;99.90
7174;DHT22;3628;48.654;8.932;2023-05-10T03:24:20;12.70;99.90
7174;DHT22;3628;48.654;8.932;2023-05-10T03:26:47;12.70;99.90
7174;DHT22;3628;48.654;8.932;2023-05-10T03:29:14;12.70;99.90
7174;DHT22;3628;48.654;8.932;2023-05-10T03:31:40;12.70;99.90
7174;DHT22;3628;48.654;8.932;2023-05-10T03:34:06;12.60;99.90
7174;DHT22;3628;48.654;8.932;2023-05-10T03:36:32;12.60;99.90
7174;DHT22;3628;48.654;8.932;2023-05-10T03:38:58;12.60;99.90
7174;DHT22;3628;48.654;8.932;2023-05-10T03:41:24;12.50;99.90
7174;DHT22;3628;48.654;8.932;2023-05-10T03:43:50;12.50;99.90
7174;DHT22;3628;48.654;8.932;2023-05-10T03:46:16;12.50;99.90
7174;DHT22;3628;48.654;8.932;2023-05-10T03:48:41;12.50;99.90
7174;DHT22;3628;48.654;8.932;2023-05-10T03:51:07;12.40;99.90
7174;DHT22;3628;48.654;8.932;2023-05-10T03:53:32;12.30;99.90
7174;DHT22;3628;48.654;8.932;2023-05-10T03:55:58;12.30;99.90
7174;DHT22;3628;48.654;8.932;2023-05-10T03:58:23;12.40;99.90
7174;DHT22;3628;48.654;8.932;2023-05-10T04:00:50;12.40;99.90
7174;DHT22;3628;48.654;8.932;2023-05-10T04:03:16;12.40;99.90
7174;DHT22;3628;48.654;8.932;2023-05-10T04:05:42;12.40;99.90
7174;DHT22;3628;48.654;8.932;2023-05-10T04:08:07;12.40;99.90
7174;DHT22;3628;48.654;8.932;2023-05-10T04:10:33;12.40;99.90
7174;DHT22;3628;48.654;8.932;2023-05-10T04:12:58;12.40;99.90
7174;DHT22;3628;48.654;8.932;2023-05-10T04:15:24;12.40;99.90
7174;DHT22;3628;48.654;8.932;2023-05-10T04:17:49;12.50;99.90
7174;DHT22;3628;48.654;8.932;2023-05-10T04:20:15;12.50;99.90
7174;DHT22;3628;48.654;8.932;2023-05-10T04:22:41;12.50;99.90
7174;DHT22;3628;48.654;8.932;2023-05-10T04:25:07;12.50;99.90
7174;DHT22;3628;48.654;8.932;2023-05-10T04:27:33;12.50;99.90
7174;DHT22;3628;48.654;8.932;2023-05-10T04:29:58;12.50;99.90
7174;DHT22;3628;48.654;8.932;2023-05-10T04:32:24;12.60;99.90
7174;DHT22;3628;48.654;8.932;2023-05-10T04:34:49;12.60;99.90
7174;DHT22;3628;48.654;8.932;2023-05-10T04:37:16;12.60;99.90
7174;DHT22;3628;48.654;8.932;2023-05-10T04:39:42;12.60;99.90
7174;DHT22;3628;48.654;8.932;2023-05-10T04:42:07;12.60;99.90
7174;DHT22;3628;48.654;8.932;2023-05-10T04:44:33;12.60;99.90
7174;DHT22;3628;48.654;8.932;2023-05-10T04:46:59;12.70;99.90
7174;DHT22;3628;48.654;8.932;2023-05-10T04:49:24;12.70;99.90
7174;DHT22;3628;48.654;8.932;2023-05-10T04:51:50;12.70;99.90
7174;DHT22;3628;48.654;8.932;2023-05-10T04:54:15;12.70;99.90
7174;DHT22;3628;48.654;8.932;2023-05-10T04:56:41;12.80;99.90
7174;DHT22;3628;48.654;8.932;2023-05-10T04:59:07;12.80;99.90
7174;DHT22;3628;48.654;8.932;2023-05-10T05:01:32;12.80;99.90
7174;DHT22;3628;48.654;8.932;2023-05-10T05:03:58;12.90;99.90
7174;DHT22;3628;48.654;8.932;2023-05-10T05:06:24;12.90;99.90
7174;DHT22;3628;48.654;8.932;2023-05-10T05:08:50;12.90;99.90
7174;DHT22;3628;48.654;8.932;2023-05-10T05:11:16;12.90;99.90
7174;DHT22;3628;48.654;8.932;2023-05-10T05:13:42;13.00;99.90
7174;DHT22;3628;48.654;8.932;2023-05-10T05:16:08;12.90;99.90
7174;DHT22;3628;48.654;8.932;2023-05-10T05:18:33;13.00;99.90
7174;DHT22;3628;48.654;8.932;2023-05-10T05:20:59;12.90;99.90
7174;DHT22;3628;48.654;8.932;2023-05-10T05:23:24;13.00;99.90
7174;DHT22;3628;48.654;8.932;2023-05-10T05:25:53;13.00;99.90
7174;DHT22;3628;48.654;8.932;2023-05-10T05:28:20;13.00;99.90
7174;DHT22;3628;48.654;8.932;2023-05-10T05:30:46;13.00;99.90
7174;DHT22;3628;48.654;8.932;2023-05-10T05:33:13;13.00;99.90
7174;DHT22;3628;48.654;8.932;2023-05-10T05:35:38;13.00;99.90
7174;DHT22;3628;48.654;8.932;2023-05-10T05:38:04;13.00;99.90
7174;DHT22;3628;48.654;8.932;2023-05-10T05:40:30;13.00;99.90
7174;DHT22;3628;48.654;8.932;2023-05-10T05:42:56;13.00;99.90
7174;DHT22;3628;48.654;8.932;2023-05-10T05:45:21;13.10;99.90
7174;DHT22;3628;48.654;8.932;2023-05-10T05:47:47;13.10;99.90
7174;DHT22;3628;48.654;8.932;2023-05-10T05:50:12;13.10;99.90
7174;DHT22;3628;48.654;8.932;2023-05-10T05:52:38;13.20;99.90
7174;DHT22;3628;48.654;8.932;2023-05-10T05:55:04;13.20;99.90
7174;DHT22;3628;48.654;8.932;2023-05-10T05:57:30;13.30;99.90
7174;DHT22;3628;48.654;8.932;2023-05-10T05:59:55;13.40;99.90
7174;DHT22;3628;48.654;8.932;2023-05-10T06:02:21;13.40;99.90
7174;DHT22;3628;48.654;8.932;2023-05-10T06:04:46;13.40;99.90
7174;DHT22;3628;48.654;8.932;2023-05-10T06:07:12;13.40;99.90
7174;DHT22;3628;48.654;8.932;2023-05-10T06:09:38;13.50;99.90
7174;DHT22;3628;48.654;8.932;2023-05-10T06:12:03;13.50;99.90
7174;DHT22;3628;48.654;8.932;2023-05-10T06:14:29;13.50;99.90
7174;DHT22;3628;48.654;8.932;2023-05-10T06:16:54;13.60;99.90
7174;DHT22;3628;48.654;8.932;2023-05-10T06:19:20;13.70;99.90
7174;DHT22;3628;48.654;8.932;2023-05-10T06:21:45;13.80;99.90
7174;DHT22;3628;48.654;8.932;2023-05-10T06:24:11;13.80;99.90
7174;DHT22;3628;48.654;8.932;2023-05-10T06:26:37;13.80;99.90
7174;DHT22;3628;48.654;8.932;2023-05-10T06:29:02;13.90;99.90
7174;DHT22;3628;48.654;8.932;2023-05-10T06:31:28;14.00;99.90
7174;DHT22;3628;48.654;8.932;2023-05-10T06:33:53;14.10;99.90
7174;DHT22;3628;48.654;8.932;2023-05-10T06:36:19;14.10;99.90
7174;DHT22;3628;48.654;8.932;2023-05-10T06:38:44;14.10;99.90
7174;DHT22;3628;48.654;8.932;2023-05-10T06:41:10;14.10;99.90
7174;DHT22;3628;48.654;8.932;2023-05-10T06:43:36;14.10;99.90
7174;DHT22;3628;48.654;8.932;2023-05-10T06:46:05;14.10;99.90
7174;DHT22;3628;48.654;8.932;2023-05-10T06:48:30;14.20;99.90
7174;DHT22;3628;48.654;8.932;2023-05-10T06:50:56;14.30;99.90
7174;DHT22;3628;48.654;8.932;2023-05-10T06:53:21;14.30;99.90
7174;DHT22;3628;48.654;8.932;2023-05-10T06:55:49;14.40;99.90
7174;DHT22;3628;48.654;8.932;2023-05-10T06:58:14;14.50;99.90
7174;DHT22;3628;48.654;8.932;2023-05-10T07:00:40;14.50;99.90
7174;DHT22;3628;48.654;8.932;2023-05-10T07:03:07;14.60;99.90
7174;DHT22;3628;48.654;8.932;2023-05-10T07:05:33;14.50;99.90
7174;DHT22;3628;48.654;8.932;2023-05-10T07:07:59;14.50;99.90
7174;DHT22;3628;48.654;8.932;2023-05-10T07:10:25;14.60;99.90
7174;DHT22;3628;48.654;8.932;2023-05-10T07:12:50;14.70;99.90
7174;DHT22;3628;48.654;8.932;2023-05-10T07:15:16;14.70;99.90
7174;DHT22;3628;48.654;8.932;2023-05-10T07:17:42;14.80;99.90
7174;DHT22;3628;48.654;8.932;2023-05-10T07:20:08;14.80;99.90
7174;DHT22;3628;48.654;8.932;2023-05-10T07:22:33;14.90;99.90
7174;DHT22;3628;48.654;8.932;2023-05-10T07:24:59;14.90;99.90
7174;DHT22;3628;48.654;8.932;2023-05-10T07:27:25;14.90;99.90
7174;DHT22;3628;48.654;8.932;2023-05-10T07:29:50;14.90;99.90
7174;DHT22;3628;48.654;8.932;2023-05-10T07:32:16;14.80;99.90
7174;DHT22;3628;48.654;8.932;2023-05-10T07:34:42;14.90;99.90
7174;DHT22;3628;48.654;8.932;2023-05-10T07:37:07;14.90;99.90
7174;DHT22;3628;48.654;8.932;2023-05-10T07:39:33;15.00;99.90
7174;DHT22;3628;48.654;8.932;2023-05-10T07:41:59;15.00;99.90
7174;DHT22;3628;48.654;8.932;2023-05-10T07:44:24;14.90;99.90
7174;DHT22;3628;48.654;8.932;2023-05-10T07:46:50;15.00;99.90
7174;DHT22;3628;48.654;8.932;2023-05-10T07:49:15;15.00;99.90
7174;DHT22;3628;48.654;8.932;2023-05-10T07:51:41;15.00;99.90
7174;DHT22;3628;48.654;8.932;2023-05-10T07:54:07;15.00;99.90
7174;DHT22;3628;48.654;8.932;2023-05-10T07:56:33;15.10;99.90
7174;DHT22;3628;48.654;8.932;2023-05-10T07:58:59;15.10;99.90
7174;DHT22;3628;48.654;8.932;2023-05-10T08:01:26;15.20;99.90
7174;DHT22;3628;48.654;8.932;2023-05-10T08:03:52;15.20;99.90
7174;DHT22;3628;48.654;8.932;2023-05-10T08:06:19;15.20;99.90
7174;DHT22;3628;48.654;8.932;2023-05-10T08:08:48;15.30;99.90
7174;DHT22;3628;48.654;8.932;2023-05-10T08:11:22;15.40;99.90
7174;DHT22;3628;48.654;8.932;2023-05-10T08:13:49;15.50;99.90
7174;DHT22;3628;48.654;8.932;2023-05-10T08:16:15;15.70;99.90
7174;DHT22;3628;48.654;8.932;2023-05-10T08:18:41;15.70;99.90
7174;DHT22;3628;48.654;8.932;2023-05-10T08:21:07;15.70;99.90
7174;DHT22;3628;48.654;8.932;2023-05-10T08:23:33;15.70;99.90
7174;DHT22;3628;48.654;8.932;2023-05-10T08:25:59;15.70;99.90
7174;DHT22;3628;48.654;8.932;2023-05-10T08:28:24;15.70;99.90
7174;DHT22;3628;48.654;8.932;2023-05-10T08:30:50;15.70;99.90
7174;DHT22;3628;48.654;8.932;2023-05-10T08:33:17;15.80;99.90
7174;DHT22;3628;48.654;8.932;2023-05-10T08:35:43;15.90;99.90
7174;DHT22;3628;48.654;8.932;2023-05-10T08:38:09;15.90;99.90
7174;DHT22;3628;48.654;8.932;2023-05-10T08:40:36;15.90;99.90
7174;DHT22;3628;48.654;8.932;2023-05-10T08:43:06;16.10;99.90
7174;DHT22;3628;48.654;8.932;2023-05-10T08:45:44;16.20;99.90
7174;DHT22;3628;48.654;8.932;2023-05-10T08:48:14;16.30;99.90
7174;DHT22;3628;48.654;8.932;2023-05-10T08:50:41;16.30;99.90
7174;DHT22;3628;48.654;8.932;2023-05-10T08:53:13;16.30;99.90
7174;DHT22;3628;48.654;8.932;2023-05-10T08:55:40;16.40;99.90
7174;DHT22;3628;48.654;8.932;2023-05-10T08:58:08;16.30;99.90
7174;DHT22;3628;48.654;8.932;2023-05-10T09:00:34;16.30;99.90
7174;DHT22;3628;48.654;8.932;2023-05-10T09:03:01;16.30;99.90
7174;DHT22;3628;48.654;8.932;2023-05-10T09:05:27;16.30;99.90
7174;DHT22;3628;48.654;8.932;2023-05-10T09:07:53;16.30;99.90
7174;DHT22;3628;48.654;8.932;2023-05-10T09:10:19;16.20;99.90
7174;DHT22;3628;48.654;8.932;2023-05-10T09:12:45;16.10;99.90
7174;DHT22;3628;48.654;8.932;2023-05-10T09:15:12;16.10;99.90
7174;DHT22;3628;48.654;8.932;2023-05-10T09:17:40;16.40;99.90
7174;DHT22;3628;48.654;8.932;2023-05-10T09:20:06;16.60;99.90
7174;DHT22;3628;48.654;8.932;2023-05-10T09:22:33;16.80;99.90
7174;DHT22;3628;48.654;8.932;2023-05-10T09:27:37;17.00;99.90
7174;DHT22;3628;48.654;8.932;2023-05-10T09:30:03;17.00;99.90
7174;DHT22;3628;48.654;8.932;2023-05-10T09:32:41;17.00;99.90
7174;DHT22;3628;48.654;8.932;2023-05-10T09:35:12;17.20;99.90
7174;DHT22;3628;48.654;8.932;2023-05-10T09:37:44;17.20;99.90
7174;DHT22;3628;48.654;8.932;2023-05-10T09:40:14;17.30;99.90
7174;DHT22;3628;48.654;8.932;2023-05-10T09:42:42;17.20;99.90
7174;DHT22;3628;48.654;8.932;2023-05-10T09:45:08;17.20;99.90
7174;DHT22;3628;48.654;8.932;2023-05-10T09:47:35;17.40;99.90
7174;DHT22;3628;48.654;8.932;2023-05-10T09:50:02;17.60;99.90
7174;DHT22;3628;48.654;8.932;2023-05-10T09:52:45;17.60;99.90
7174;DHT22;3628;48.654;8.932;2023-05-10T09:55:11;17.50;99.90
7174;DHT22;3628;48.654;8.932;2023-05-10T09:57:37;17.40;99.90
7174;DHT22;3628;48.654;8.932;2023-05-10T10:00:03;17.50;99.90
7174;DHT22;3628;48.654;8.932;2023-05-10T10:02:31;17.60;99.90
7174;DHT22;3628;48.654;8.932;2023-05-10T10:04:57;17.80;99.90
7174;DHT22;3628;48.654;8.932;2023-05-10T10:07:24;17.80;99.90
7174;DHT22;3628;48.654;8.932;2023-05-10T10:09:51;17.80;99.90
7174;DHT22;3628;48.654;8.932;2023-05-10T10:12:17;17.90;99.90
7174;DHT22;3628;48.654;8.932;2023-05-10T10:14:43;18.10;99.90
7174;DHT22;3628;48.654;8.932;2023-05-10T10:17:09;18.10;99.90
7174;DHT22;3628;48.654;8.932;2023-05-10T10:19:35;18.20;99.90
7174;DHT22;3628;48.654;8.932;2023-05-10T10:22:01;18.30;99.90
7174;DHT22;3628;48.654;8.932;2023-05-10T10:24:26;18.50;99.90
7174;DHT22;3628;48.654;8.932;2023-05-10T10:26:53;18.60;99.90
7174;DHT22;3628;48.654;8.932;2023-05-10T10:29:31;18.70;99.90
7174;DHT22;3628;48.654;8.932;2023-05-10T10:34:46;18.00;99.90
7174;DHT22;3628;48.654;8.932;2023-05-10T10:37:12;17.30;99.90
7174;DHT22;3628;48.654;8.932;2023-05-10T10:39:37;16.80;99.90
7174;DHT22;3628;48.654;8.932;2023-05-10T10:42:04;15.90;99.90
7174;DHT22;3628;48.654;8.932;2023-05-10T10:52:26;14.40;99.90
7174;DHT22;3628;48.654;8.932;2023-05-10T10:55:27;14.30;99.90
7174;DHT22;3628;48.654;8.932;2023-05-10T10:57:57;14.20;99.90
7174;DHT22;3628;48.654;8.932;2023-05-10T11:02:57;14.20;99.90
7174;DHT22;3628;48.654;8.932;2023-05-10T11:07:59;14.10;99.90
7174;DHT22;3628;48.654;8.932;2023-05-10T11:10:25;14.10;99.90
7174;DHT22;3628;48.654;8.932;2023-05-10T11:13:02;14.30;99.90
7174;DHT22;3628;48.654;8.932;2023-05-10T11:15:35;14.40;99.90
7174;DHT22;3628;48.654;8.932;2023-05-10T11:18:24;14.60;99.90
7174;DHT22;3628;48.654;8.932;2023-05-10T11:20:58;14.80;99.90
7174;DHT22;3628;48.654;8.932;2023-05-10T11:23:52;14.90;99.90
7174;DHT22;3628;48.654;8.932;2023-05-10T11:26:21;15.20;99.90
7174;DHT22;3628;48.654;8.932;2023-05-10T11:28:49;15.50;99.90
7174;DHT22;3628;48.654;8.932;2023-05-10T11:31:15;15.80;99.90
7174;DHT22;3628;48.654;8.932;2023-05-10T11:33:45;16.20;99.90
7174;DHT22;3628;48.654;8.932;2023-05-10T11:36:12;16.40;99.90
7174;DHT22;3628;48.654;8.932;2023-05-10T11:38:38;16.30;99.90
7174;DHT22;3628;48.654;8.932;2023-05-10T11:41:03;16.40;99.90
7174;DHT22;3628;48.654;8.932;2023-05-10T11:43:29;16.50;99.90
7174;DHT22;3628;48.654;8.932;2023-05-10T11:45:56;16.50;99.90
7174;DHT22;3628;48.654;8.932;2023-05-10T11:48:21;16.50;99.90
7174;DHT22;3628;48.654;8.932;2023-05-10T11:50:49;16.60;99.90
7174;DHT22;3628;48.654;8.932;2023-05-10T11:53:15;16.80;99.90
7174;DHT22;3628;48.654;8.932;2023-05-10T11:55:40;17.00;99.90
7174;DHT22;3628;48.654;8.932;2023-05-10T11:58:06;17.00;99.90
7174;DHT22;3628;48.654;8.932;2023-05-10T12:00:32;16.90;99.90
7174;DHT22;3628;48.654;8.932;2023-05-10T12:02:58;16.80;99.90
7174;DHT22;3628;48.654;8.932;2023-05-10T12:05:24;16.80;99.90
7174;DHT22;3628;48.654;8.932;2023-05-10T12:07:49;16.60;99.90
7174;DHT22;3628;48.654;8.932;2023-05-10T12:10:15;16.50;99.90
7174;DHT22;3628;48.654;8.932;2023-05-10T12:12:44;16.40;99.90
7174;DHT22;3628;48.654;8.932;2023-05-10T12:17:44;16.40;99.90
7174;DHT22;3628;48.654;8.932;2023-05-10T12:22:39;16.40;99.90
7174;DHT22;3628;48.654;8.932;2023-05-10T12:25:06;16.30;99.90
7174;DHT22;3628;48.654;8.932;2023-05-10T12:27:33;16.20;99.90
7174;DHT22;3628;48.654;8.932;2023-05-10T12:30:02;16.00;99.90
7174;DHT22;3628;48.654;8.932;2023-05-10T12:33:01;15.90;99.90
7174;DHT22;3628;48.654;8.932;2023-05-10T12:35:30;15.80;99.90
7174;DHT22;3628;48.654;8.932;2023-05-10T12:37:55;15.70;99.90
7174;DHT22;3628;48.654;8.932;2023-05-10T12:40:21;15.70;99.90
7174;DHT22;3628;48.654;8.932;2023-05-10T12:42:47;15.60;99.90
7174;DHT22;3628;48.654;8.932;2023-05-10T12:45:14;15.70;99.90
7174;DHT22;3628;48.654;8.932;2023-05-10T12:47:39;15.60;99.90
7174;DHT22;3628;48.654;8.932;2023-05-10T12:50:05;15.60;99.90
7174;DHT22;3628;48.654;8.932;2023-05-10T12:52:32;15.50;99.90
7174;DHT22;3628;48.654;8.932;2023-05-10T12:54:58;15.50;99.90
7174;DHT22;3628;48.654;8.932;2023-05-10T12:57:24;15.60;99.90
7174;DHT22;3628;48.654;8.932;2023-05-10T12:59:50;15.70;99.90
7174;DHT22;3628;48.654;8.932;2023-05-10T13:02:16;16.00;99.90
7174;DHT22;3628;48.654;8.932;2023-05-10T13:04:46;16.10;99.90
7174;DHT22;3628;48.654;8.932;2023-05-10T13:07:12;16.20;99.90
7174;DHT22;3628;48.654;8.932;2023-05-10T13:09:38;16.20;99.90
7174;DHT22;3628;48.654;8.932;2023-05-10T13:12:03;16.30;99.90
7174;DHT22;3628;48.654;8.932;2023-05-10T13:14:30;16.30;99.90
7174;DHT22;3628;48.654;8.932;2023-05-10T13:16:56;16.20;99.90
7174;DHT22;3628;48.654;8.932;2023-05-10T13:19:21;16.20;99.90
7174;DHT22;3628;48.654;8.932;2023-05-10T13:21:47;16.30;99.90
7174;DHT22;3628;48.654;8.932;2023-05-10T13:24:12;16.40;99.90
7174;DHT22;3628;48.654;8.932;2023-05-10T13:26:42;16.60;99.90
7174;DHT22;3628;48.654;8.932;2023-05-10T13:29:08;16.80;99.90
7174;DHT22;3628;48.654;8.932;2023-05-10T13:31:34;16.90;99.90
7174;DHT22;3628;48.654;8.932;2023-05-10T13:34:00;17.00;99.90
7174;DHT22;3628;48.654;8.932;2023-05-10T13:36:25;17.10;99.90
7174;DHT22;3628;48.654;8.932;2023-05-10T13:38:51;17.30;99.90
7174;DHT22;3628;48.654;8.932;2023-05-10T13:41:17;17.50;99.90
7174;DHT22;3628;48.654;8.932;2023-05-10T13:43:43;17.50;99.90
7174;DHT22;3628;48.654;8.932;2023-05-10T13:46:08;17.60;99.90
7174;DHT22;3628;48.654;8.932;2023-05-10T13:48:34;17.70;99.90
7174;DHT22;3628;48.654;8.932;2023-05-10T13:50:59;18.00;99.90
7174;DHT22;3628;48.654;8.932;2023-05-10T13:53:25;17.90;99.90
7174;DHT22;3628;48.654;8.932;2023-05-10T13:55:50;17.90;99.90
7174;DHT22;3628;48.654;8.932;2023-05-10T13:58:16;17.90;99.90
7174;DHT22;3628;48.654;8.932;2023-05-10T14:00:41;17.80;99.90
7174;DHT22;3628;48.654;8.932;2023-05-10T14:03:07;17.70;99.90
7174;DHT22;3628;48.654;8.932;2023-05-10T14:05:34;18.00;99.90
7174;DHT22;3628;48.654;8.932;2023-05-10T14:07:59;18.10;99.90
7174;DHT22;3628;48.654;8.932;2023-05-10T14:10:25;18.00;99.90
7174;DHT22;3628;48.654;8.932;2023-05-10T14:12:51;18.10;99.90
7174;DHT22;3628;48.654;8.932;2023-05-10T14:15:16;18.30;99.90
7174;DHT22;3628;48.654;8.932;2023-05-10T14:17:42;18.50;99.90
7174;DHT22;3628;48.654;8.932;2023-05-10T14:20:08;18.50;99.90
7174;DHT22;3628;48.654;8.932;2023-05-10T14:22:33;18.50;99.90
7174;DHT22;3628;48.654;8.932;2023-05-10T14:24:59;18.50;99.90
7174;DHT22;3628;48.654;8.932;2023-05-10T14:27:25;18.30;99.90
7174;DHT22;3628;48.654;8.932;2023-05-10T14:29:50;18.20;99.90
7174;DHT22;3628;48.654;8.932;2023-05-10T14:32:16;18.00;99.90
7174;DHT22;3628;48.654;8.932;2023-05-10T14:34:42;18.00;99.90
7174;DHT22;3628;48.654;8.932;2023-05-10T14:37:10;17.70;99.90
7174;DHT22;3628;48.654;8.932;2023-05-10T14:39:36;17.70;99.90
7174;DHT22;3628;48.654;8.932;2023-05-10T14:42:02;17.70;99.90
7174;DHT22;3628;48.654;8.932;2023-05-10T14:44:28;17.50;99.90
7174;DHT22;3628;48.654;8.932;2023-05-10T14:46:53;17.40;99.90
7174;DHT22;3628;48.654;8.932;2023-05-10T14:49:19;17.40;99.90
7174;DHT22;3628;48.654;8.932;2023-05-10T14:51:47;17.50;99.90
7174;DHT22;3628;48.654;8.932;2023-05-10T14:54:13;17.50;99.90
7174;DHT22;3628;48.654;8.932;2023-05-10T14:56:39;17.40;99.90
7174;DHT22;3628;48.654;8.932;2023-05-10T14:59:06;17.40;99.90
7174;DHT22;3628;48.654;8.932;2023-05-10T15:01:32;17.40;99.90
7174;DHT22;3628;48.654;8.932;2023-05-10T15:03:58;17.40;99.90
7174;DHT22;3628;48.654;8.932;2023-05-10T15:06:30;17.40;99.90
7174;DHT22;3628;48.654;8.932;2023-05-10T15:08:56;17.40;99.90
7174;DHT22;3628;48.654;8.932;2023-05-10T15:11:22;17.40;99.90
7174;DHT22;3628;48.654;8.932;2023-05-10T15:13:47;17.50;99.90
7174;DHT22;3628;48.654;8.932;2023-05-10T15:16:13;17.50;99.90
7174;DHT22;3628;48.654;8.932;2023-05-10T15:18:38;17.40;99.90
7174;DHT22;3628;48.654;8.932;2023-05-10T15:21:04;17.10;99.90
7174;DHT22;3628;48.654;8.932;2023-05-10T15:23:29;17.10;99.90
7174;DHT22;3628;48.654;8.932;2023-05-10T15:25:55;17.10;99.90
7174;DHT22;3628;48.654;8.932;2023-05-10T15:28:21;17.20;99.90
7174;DHT22;3628;48.654;8.932;2023-05-10T15:30:47;17.30;99.90
7174;DHT22;3628;48.654;8.932;2023-05-10T15:33:13;17.20;99.90
7174;DHT22;3628;48.654;8.932;2023-05-10T15:35:38;17.40;99.90
7174;DHT22;3628;48.654;8.932;2023-05-10T15:38:05;17.60;99.90
7174;DHT22;3628;48.654;8.932;2023-05-10T15:40:31;17.60;99.90
7174;DHT22;3628;48.654;8.932;2023-05-10T15:42:56;17.60;99.90
7174;DHT22;3628;48.654;8.932;2023-05-10T15:45:22;17.60;99.90
7174;DHT22;3628;48.654;8.932;2023-05-10T15:47:48;17.80;99.90
7174;DHT22;3628;48.654;8.932;2023-05-10T15:50:14;17.80;99.90
7174;DHT22;3628;48.654;8.932;2023-05-10T15:52:40;18.00;99.90
7174;DHT22;3628;48.654;8.932;2023-05-10T15:55:07;17.90;99.90
7174;DHT22;3628;48.654;8.932;2023-05-10T15:57:38;18.00;99.90
7174;DHT22;3628;48.654;8.932;2023-05-10T16:00:05;18.00;99.90
7174;DHT22;3628;48.654;8.932;2023-05-10T16:02:30;18.00;99.90
7174;DHT22;3628;48.654;8.932;2023-05-10T16:04:56;18.10;99.90
7174;DHT22;3628;48.654;8.932;2023-05-10T16:07:21;18.00;99.90
7174;DHT22;3628;48.654;8.932;2023-05-10T16:09:47;17.80;99.90
7174;DHT22;3628;48.654;8.932;2023-05-10T16:12:14;17.80;99.90
7174;DHT22;3628;48.654;8.932;2023-05-10T16:14:39;17.70;99.90
7174;DHT22;3628;48.654;8.932;2023-05-10T16:17:05;17.70;99.90
7174;DHT22;3628;48.654;8.932;2023-05-10T16:19:31;17.60;99.90
7174;DHT22;3628;48.654;8.932;2023-05-10T16:21:56;17.40;99.90
7174;DHT22;3628;48.654;8.932;2023-05-10T16:24:22;17.30;99.90
7174;DHT22;3628;48.654;8.932;2023-05-10T16:26:47;17.00;99.90
7174;DHT22;3628;48.654;8.932;2023-05-10T16:29:13;16.60;99.90
7174;DHT22;3628;48.654;8.932;2023-05-10T16:31:38;16.40;99.90
7174;DHT22;3628;48.654;8.932;2023-05-10T16:34:04;16.10;99.90
7174;DHT22;3628;48.654;8.932;2023-05-10T16:36:29;15.80;99.90
7174;DHT22;3628;48.654;8.932;2023-05-10T16:38:55;15.60;99.90
7174;DHT22;3628;48.654;8.932;2023-05-10T16:41:21;15.50;99.90